Time,TemperatureF,DewpointF,PressureIn,WindDirection,WindDirectionDegrees,WindSpeedMPH,WindSpeedGustMPH,Humidity,HourlyPrecipIn,Conditions,Clouds,dailyrainin,SoftwareType,DateUTC
2013-03-03 00:00:00,32.2,27.0,29.68,NW,310,0.0,0.0,81,13.32,,,68.72,meteohub,2013-03-03 05:00:00,
2013-03-03 00:03:00,32.2,27.0,29.68,NW,310,0.0,0.0,81,13.32,,,68.72,meteohub,2013-03-03 05:03:00,
2013-03-03 00:08:00,31.8,26.6,29.69,NW,310,0.0,0.0,81,13.48,,,70.08,meteohub,2013-03-03 05:08:00,
2013-03-03 00:13:00,31.8,26.6,29.69,NW,310,0.0,0.0,81,13.76,,,71.56,meteohub,2013-03-03 05:13:00,
2013-03-03 00:18:00,31.8,26.6,29.69,NW,310,0.0,0.0,81,13.40,,,72.28,meteohub,2013-03-03 05:18:00,
2013-03-03 00:23:00,31.6,26.4,29.69,NW,310,0.0,0.0,81,13.76,,,73.84,meteohub,2013-03-03 05:23:00,
2013-03-03 00:29:00,31.6,26.4,29.69,NW,310,0.0,0.0,81,13.16,,,74.44,meteohub,2013-03-03 05:29:00,
2013-03-03 00:34:00,31.6,26.4,29.69,NW,310,0.0,0.0,81,13.52,,,76.00,meteohub,2013-03-03 05:34:00,
2013-03-03 00:39:00,31.6,26.4,29.69,NW,310,0.0,0.0,81,13.88,,,77.44,meteohub,2013-03-03 05:39:00,
2013-03-03 00:44:00,31.5,26.2,29.69,NW,310,0.0,0.0,81,13.40,,,78.16,meteohub,2013-03-03 05:44:00,
2013-03-03 00:49:00,31.5,26.2,29.69,NW,310,0.0,0.0,81,13.64,,,79.60,meteohub,2013-03-03 05:49:00,
2013-03-03 00:54:00,31.5,26.1,29.70,NW,310,0.0,0.0,80,13.76,,,80.92,meteohub,2013-03-03 05:54:00,
2013-03-03 00:59:00,31.5,26.1,29.69,NW,310,0.0,0.0,80,13.40,,,81.64,meteohub,2013-03-03 05:59:00,
2013-03-03 01:05:00,31.3,25.9,29.69,NW,310,0.0,0.0,80,13.12,,,83.80,meteohub,2013-03-03 06:05:00,
2013-03-03 01:10:00,31.3,25.9,29.69,NW,310,0.0,0.0,80,13.60,,,85.40,meteohub,2013-03-03 06:10:00,
2013-03-03 01:15:00,31.3,25.9,29.70,NW,310,0.0,0.0,80,13.84,,,86.84,meteohub,2013-03-03 06:15:00,
2013-03-03 01:20:00,31.3,25.9,29.70,NW,310,0.0,0.0,80,13.48,,,87.56,meteohub,2013-03-03 06:20:00,
2013-03-03 01:25:00,31.3,25.9,29.70,NW,310,0.0,0.0,80,13.72,,,89.00,meteohub,2013-03-03 06:25:00,
2013-03-03 01:30:00,31.1,25.7,29.70,NW,310,0.0,0.0,80,13.84,,,90.32,meteohub,2013-03-03 06:30:00,
2013-03-03 01:36:00,31.1,25.3,29.70,NW,310,0.0,0.0,79,13.36,,,91.04,meteohub,2013-03-03 06:36:00,
2013-03-03 01:41:00,31.1,25.3,29.70,NW,310,0.0,0.0,79,13.84,,,92.60,meteohub,2013-03-03 06:41:00,
2013-03-03 01:46:00,30.9,25.2,29.69,NW,310,0.0,0.0,79,13.28,,,93.24,meteohub,2013-03-03 06:46:00,
2013-03-03 01:51:00,30.9,24.8,29.69,NW,310,0.0,0.0,78,13.64,,,94.80,meteohub,2013-03-03 06:51:00,
2013-03-03 01:56:00,30.9,25.2,29.69,NW,310,0.0,0.0,79,13.88,,,96.24,meteohub,2013-03-03 06:56:00,
2013-03-03 02:01:00,30.9,24.8,29.69,NW,310,0.0,0.0,78,13.40,,,96.96,meteohub,2013-03-03 07:01:00,
2013-03-03 02:06:00,30.9,24.8,29.69,NW,310,0.0,0.0,78,13.76,,,98.40,meteohub,2013-03-03 07:06:00,
2013-03-03 02:12:00,30.7,24.6,29.69,NW,310,0.0,0.0,78,13.24,,,99.12,meteohub,2013-03-03 07:12:00,
2013-03-03 02:17:00,30.7,24.6,29.69,NW,310,0.0,0.0,78,13.52,,,99.99,meteohub,2013-03-03 07:17:00,
2013-03-03 02:22:00,30.7,24.6,29.69,NW,310,0.0,0.0,78,13.80,,,99.99,meteohub,2013-03-03 07:22:00,
2013-03-03 02:27:00,30.7,24.6,29.69,NW,310,0.0,0.0,78,12.60,,,99.99,meteohub,2013-03-03 07:27:00,
2013-03-03 02:32:00,30.7,24.6,29.69,NW,310,0.0,0.0,78,13.56,,,99.99,meteohub,2013-03-03 07:32:00,
2013-03-03 02:37:00,30.7,24.6,29.68,NW,310,0.0,0.0,78,14.04,,,99.99,meteohub,2013-03-03 07:37:00,
2013-03-03 02:42:00,30.6,24.4,29.68,NW,310,0.0,0.0,78,13.56,,,99.99,meteohub,2013-03-03 07:42:00,
2013-03-03 02:47:00,30.6,24.4,29.68,NW,310,0.0,0.0,78,13.76,,,99.99,meteohub,2013-03-03 07:47:00,
2013-03-03 02:52:00,30.6,24.4,29.68,NW,310,0.0,0.0,78,13.40,,,99.99,meteohub,2013-03-03 07:52:00,
2013-03-03 02:57:00,30.6,24.3,29.68,NW,310,0.0,0.0,77,13.56,,,99.99,meteohub,2013-03-03 07:57:00,
2013-03-03 03:02:00,30.6,24.4,29.68,NW,310,0.0,0.0,78,13.80,,,99.99,meteohub,2013-03-03 08:02:00,
2013-03-03 03:07:00,30.6,24.4,29.68,NW,310,0.0,0.0,78,13.84,,,99.99,meteohub,2013-03-03 08:07:00,
2013-03-03 03:12:00,30.4,24.3,29.68,NW,310,0.0,0.0,78,13.48,,,99.99,meteohub,2013-03-03 08:12:00,
2013-03-03 03:17:00,30.4,24.3,29.68,NW,310,0.0,0.0,78,13.68,,,99.99,meteohub,2013-03-03 08:17:00,
2013-03-03 03:22:00,30.4,24.3,29.68,NW,310,0.0,0.0,78,13.28,,,99.99,meteohub,2013-03-03 08:22:00,
2013-03-03 03:27:00,30.4,24.3,29.68,NW,310,0.0,0.0,78,13.64,,,99.99,meteohub,2013-03-03 08:27:00,
2013-03-03 03:32:00,30.4,24.3,29.68,NW,310,0.0,0.0,78,13.88,,,99.99,meteohub,2013-03-03 08:32:00,
2013-03-03 03:38:00,30.4,24.6,29.68,NW,310,0.0,0.0,79,13.40,,,99.99,meteohub,2013-03-03 08:38:00,
2013-03-03 03:43:00,30.4,24.6,29.68,NW,310,0.0,0.0,79,13.64,,,99.99,meteohub,2013-03-03 08:43:00,
2013-03-03 03:48:00,30.0,24.1,29.68,North,-999,-999.0,0.0,78,12.44,,,99.99,meteohub,2013-03-03 08:48:00,
2013-03-03 03:53:00,30.0,24.1,29.68,NW,310,0.0,0.0,78,12.20,,,99.99,meteohub,2013-03-03 08:53:00,
2013-03-03 03:58:00,29.8,23.9,29.68,NW,310,0.0,0.0,78,12.52,,,99.99,meteohub,2013-03-03 08:58:00,
2013-03-03 04:03:00,29.8,23.9,29.68,NW,310,0.0,0.0,78,11.80,,,99.99,meteohub,2013-03-03 09:03:00,
2013-03-03 04:08:00,29.8,23.9,29.68,NW,310,0.0,0.0,78,12.36,,,99.99,meteohub,2013-03-03 09:08:00,
2013-03-03 04:13:00,29.7,23.7,29.68,NW,310,0.0,0.0,78,12.84,,,99.99,meteohub,2013-03-03 09:13:00,
2013-03-03 04:18:00,29.7,23.9,29.68,NW,310,0.0,0.0,79,12.12,,,99.99,meteohub,2013-03-03 09:18:00,
2013-03-03 04:23:00,29.7,23.9,29.68,NW,310,0.0,0.0,79,12.48,,,99.99,meteohub,2013-03-03 09:23:00,
2013-03-03 04:28:00,29.7,23.9,29.68,NW,310,0.0,0.0,79,12.12,,,99.99,meteohub,2013-03-03 09:28:00,
2013-03-03 04:33:00,29.7,23.9,29.68,NW,310,0.0,0.0,79,12.44,,,99.99,meteohub,2013-03-03 09:33:00,
2013-03-03 04:39:00,29.7,23.9,29.68,NW,310,0.0,0.0,79,12.68,,,99.99,meteohub,2013-03-03 09:39:00,
2013-03-03 04:44:00,29.7,23.9,29.69,NW,310,0.0,0.0,79,12.68,,,99.99,meteohub,2013-03-03 09:44:00,
2013-03-03 04:49:00,29.5,23.5,29.69,NW,310,0.0,0.0,78,13.76,,,99.99,meteohub,2013-03-03 09:49:00,
2013-03-03 04:54:00,29.5,23.5,29.69,NW,310,0.0,0.0,78,13.28,,,99.99,meteohub,2013-03-03 09:54:00,
2013-03-03 04:59:00,29.5,23.5,29.69,NW,310,0.0,0.0,78,13.52,,,99.99,meteohub,2013-03-03 09:59:00,
2013-03-03 05:04:00,29.3,23.4,29.69,NW,310,0.0,0.0,78,13.76,,,99.99,meteohub,2013-03-03 10:04:00,
2013-03-03 05:10:00,29.3,23.4,29.69,NW,310,0.0,0.0,78,13.80,,,99.99,meteohub,2013-03-03 10:10:00,
2013-03-03 05:15:00,29.3,23.4,29.69,NW,310,0.0,0.0,78,13.32,,,99.99,meteohub,2013-03-03 10:15:00,
2013-03-03 05:20:00,29.1,23.4,29.69,NW,310,0.0,0.0,79,13.92,,,99.99,meteohub,2013-03-03 10:20:00,
2013-03-03 05:25:00,29.1,23.4,29.69,NW,310,0.0,0.0,79,13.92,,,99.99,meteohub,2013-03-03 10:25:00,
2013-03-03 05:30:00,28.9,23.2,29.69,NW,310,0.0,0.0,79,13.36,,,99.99,meteohub,2013-03-03 10:30:00,
2013-03-03 05:35:00,28.9,23.2,29.70,NW,310,0.0,0.0,79,13.52,,,99.99,meteohub,2013-03-03 10:35:00,
2013-03-03 05:40:00,28.9,23.2,29.70,NW,310,0.0,0.0,79,13.88,,,99.99,meteohub,2013-03-03 10:40:00,
2013-03-03 05:45:00,28.9,23.2,29.70,NW,310,0.0,0.0,79,13.52,,,99.99,meteohub,2013-03-03 10:45:00,
2013-03-03 05:50:00,28.9,23.0,29.70,NW,310,0.0,0.0,78,13.72,,,99.99,meteohub,2013-03-03 10:50:00,
2013-03-03 05:56:00,28.8,22.8,29.70,NW,310,0.0,0.0,78,12.64,,,99.99,meteohub,2013-03-03 10:56:00,
2013-03-03 06:01:00,28.8,23.0,29.70,NW,310,0.0,0.0,79,13.56,,,99.99,meteohub,2013-03-03 11:01:00,
2013-03-03 06:06:00,28.8,23.0,29.70,NW,310,0.0,0.0,79,13.80,,,99.99,meteohub,2013-03-03 11:06:00,
2013-03-03 06:11:00,28.8,22.8,29.70,NW,310,0.0,0.0,78,13.32,,,99.99,meteohub,2013-03-03 11:11:00,
2013-03-03 06:16:00,28.8,22.8,29.70,NW,310,0.0,0.0,78,13.68,,,99.99,meteohub,2013-03-03 11:16:00,
2013-03-03 06:21:00,28.6,22.6,29.70,NW,310,0.0,0.0,78,13.92,,,99.99,meteohub,2013-03-03 11:21:00,
2013-03-03 06:26:00,28.6,22.6,29.70,NW,310,0.0,0.0,78,13.44,,,99.99,meteohub,2013-03-03 11:26:00,
2013-03-03 06:31:00,28.6,22.6,29.70,NW,310,0.0,0.0,78,13.68,,,99.99,meteohub,2013-03-03 11:31:00,
2013-03-03 06:36:00,28.6,22.6,29.70,NW,310,0.0,0.0,78,13.88,,,99.99,meteohub,2013-03-03 11:36:00,
2013-03-03 06:41:00,28.6,22.6,29.70,NW,310,0.0,0.0,78,13.40,,,99.99,meteohub,2013-03-03 11:41:00,
2013-03-03 06:47:00,28.6,22.6,29.70,NW,310,0.0,0.0,78,13.68,,,99.99,meteohub,2013-03-03 11:47:00,
2013-03-03 06:52:00,28.6,22.6,29.70,NW,310,0.0,0.0,78,13.84,,,99.99,meteohub,2013-03-03 11:52:00,
2013-03-03 06:57:00,28.8,22.8,29.70,NW,310,0.0,0.0,78,13.48,,,99.99,meteohub,2013-03-03 11:57:00,
2013-03-03 07:02:00,28.8,22.8,29.71,NW,310,0.0,0.0,78,13.24,,,99.99,meteohub,2013-03-03 12:02:00,
2013-03-03 07:07:00,28.8,22.8,29.71,North,-999,-999.0,0.0,78,12.04,,,99.99,meteohub,2013-03-03 12:07:00,
2013-03-03 07:12:00,28.8,22.5,29.71,NW,310,0.0,0.0,77,12.40,,,99.99,meteohub,2013-03-03 12:12:00,
2013-03-03 07:17:00,28.9,22.6,29.71,NW,310,0.0,0.0,77,12.64,,,99.99,meteohub,2013-03-03 12:17:00,
2013-03-03 07:22:00,28.9,22.6,29.71,NW,310,0.0,0.0,77,12.16,,,99.99,meteohub,2013-03-03 12:22:00,
2013-03-03 07:27:00,28.9,22.6,29.71,NW,310,0.0,0.0,77,12.52,,,99.99,meteohub,2013-03-03 12:27:00,
2013-03-03 07:32:00,29.1,23.2,29.71,NW,310,0.0,0.0,78,12.16,,,99.99,meteohub,2013-03-03 12:32:00,
2013-03-03 07:37:00,29.1,22.8,29.71,NW,310,0.0,0.0,77,12.32,,,99.99,meteohub,2013-03-03 12:37:00,
2013-03-03 07:42:00,29.1,23.2,29.70,NW,310,0.0,0.0,78,12.68,,,99.99,meteohub,2013-03-03 12:42:00,
2013-03-03 07:47:00,29.5,23.5,29.70,NW,310,0.0,0.0,78,12.32,,,99.99,meteohub,2013-03-03 12:47:00,
2013-03-03 07:52:00,29.7,23.7,29.70,NW,310,0.0,0.0,78,12.64,,,99.99,meteohub,2013-03-03 12:52:00,
2013-03-03 07:57:00,29.7,23.4,29.71,NW,310,0.0,0.0,77,12.04,,,99.99,meteohub,2013-03-03 12:57:00,
2013-03-03 08:02:00,29.8,23.5,29.71,NW,310,0.0,0.0,77,13.24,,,99.99,meteohub,2013-03-03 13:02:00,
2013-03-03 08:07:00,29.8,23.5,29.70,NW,310,0.0,0.0,77,13.84,,,99.99,meteohub,2013-03-03 13:07:00,
2013-03-03 08:12:00,29.8,23.5,29.70,NW,310,0.0,0.0,77,13.60,,,99.99,meteohub,2013-03-03 13:12:00,
2013-03-03 08:17:00,30.0,23.4,29.70,NW,310,0.0,0.0,76,13.84,,,99.99,meteohub,2013-03-03 13:17:00,
2013-03-03 08:22:00,30.0,23.4,29.70,NW,310,0.0,0.0,76,13.40,,,99.99,meteohub,2013-03-03 13:22:00,
2013-03-03 08:27:00,30.2,23.2,29.70,NW,310,0.0,0.0,75,13.64,,,99.99,meteohub,2013-03-03 13:27:00,
2013-03-03 08:32:00,30.0,23.0,29.70,NW,310,0.0,0.0,75,14.00,,,99.99,meteohub,2013-03-03 13:32:00,
2013-03-03 08:37:00,30.0,22.8,29.70,NW,310,0.0,0.0,74,13.48,,,99.99,meteohub,2013-03-03 13:37:00,
2013-03-03 08:42:00,30.0,23.0,29.70,NW,310,0.0,0.0,75,13.72,,,99.99,meteohub,2013-03-03 13:42:00,
2013-03-03 08:47:00,30.6,23.9,29.70,NW,310,0.0,0.0,76,13.40,,,99.99,meteohub,2013-03-03 13:47:00,
2013-03-03 08:52:00,30.7,24.1,29.70,NW,310,0.0,0.0,76,13.64,,,99.99,meteohub,2013-03-03 13:52:00,
2013-03-03 08:57:00,31.3,23.9,29.70,NW,310,0.0,0.0,74,13.88,,,99.99,meteohub,2013-03-03 13:57:00,
2013-03-03 09:02:00,31.3,23.4,29.69,NW,310,0.0,0.0,72,13.40,,,99.99,meteohub,2013-03-03 14:02:00,
2013-03-03 09:07:00,31.5,23.5,29.69,NW,310,0.0,0.0,72,13.56,,,99.99,meteohub,2013-03-03 14:07:00,
2013-03-03 09:12:00,31.6,23.9,29.69,NW,310,0.0,0.0,73,13.92,,,99.99,meteohub,2013-03-03 14:12:00,
2013-03-03 09:17:00,31.8,23.2,29.69,NW,310,0.0,0.0,70,13.44,,,99.99,meteohub,2013-03-03 14:17:00,
2013-03-03 09:22:00,32.2,24.4,29.69,NW,310,0.0,0.0,73,13.56,,,99.99,meteohub,2013-03-03 14:22:00,
2013-03-03 09:27:00,32.4,24.1,29.69,NW,310,0.0,0.0,71,13.92,,,99.99,meteohub,2013-03-03 14:27:00,
2013-03-03 09:32:00,32.7,24.4,29.69,NW,310,0.0,0.0,71,13.44,,,99.99,meteohub,2013-03-03 14:32:00,
2013-03-03 09:37:00,33.4,24.8,29.69,NW,310,0.0,0.0,70,13.80,,,99.99,meteohub,2013-03-03 14:37:00,
2013-03-03 09:42:00,33.6,24.3,29.69,NW,310,0.0,0.0,68,13.40,,,99.99,meteohub,2013-03-03 14:42:00,
2013-03-03 09:47:00,33.6,23.9,29.69,NW,310,0.0,0.0,67,13.64,,,99.99,meteohub,2013-03-03 14:47:00,
2013-03-03 09:52:00,33.6,24.3,29.69,NW,310,0.0,0.0,68,13.76,,,99.99,meteohub,2013-03-03 14:52:00,
2013-03-03 09:57:00,33.6,23.9,29.68,NW,310,0.0,0.0,67,13.28,,,99.99,meteohub,2013-03-03 14:57:00,
2013-03-03 10:02:00,33.4,23.7,29.69,NW,310,0.0,0.0,67,14.00,,,99.99,meteohub,2013-03-03 15:02:00,
2013-03-03 10:07:00,33.6,23.5,29.68,NW,310,0.0,0.0,66,13.96,,,99.99,meteohub,2013-03-03 15:07:00,
2013-03-03 10:12:00,33.4,23.0,29.68,NW,310,0.0,0.0,65,13.56,,,99.99,meteohub,2013-03-03 15:12:00,
2013-03-03 10:17:00,34.0,24.3,29.68,NW,310,0.0,0.0,67,13.80,,,99.99,meteohub,2013-03-03 15:17:00,
2013-03-03 10:22:00,34.2,24.1,29.68,NW,310,0.0,0.0,66,13.32,,,99.99,meteohub,2013-03-03 15:22:00,
2013-03-03 10:27:00,34.3,24.4,29.68,NW,310,0.0,0.0,67,13.44,,,99.99,meteohub,2013-03-03 15:27:00,
2013-03-03 10:32:00,34.0,23.5,29.68,NW,310,0.0,0.0,65,13.92,,,99.99,meteohub,2013-03-03 15:32:00,
2013-03-03 10:37:00,33.4,23.4,29.68,NW,310,0.0,0.0,66,13.32,,,99.99,meteohub,2013-03-03 15:37:00,
2013-03-03 10:42:00,33.4,23.7,29.68,NW,310,0.0,0.0,67,13.56,,,99.99,meteohub,2013-03-03 15:42:00,
2013-03-03 10:47:00,33.6,23.9,29.68,NW,310,0.0,0.0,67,13.92,,,99.99,meteohub,2013-03-03 15:47:00,
2013-03-03 10:52:00,33.6,23.5,29.68,NW,310,0.0,0.0,66,13.56,,,99.99,meteohub,2013-03-03 15:52:00,
2013-03-03 10:57:00,33.6,23.5,29.68,NW,310,0.0,0.0,66,13.80,,,99.99,meteohub,2013-03-03 15:57:00,
2013-03-03 11:02:00,34.0,23.9,29.68,NW,310,0.0,0.0,66,13.32,,,99.99,meteohub,2013-03-03 16:02:00,
2013-03-03 11:06:00,34.0,23.5,29.68,NW,310,0.0,0.0,65,13.56,,,99.99,meteohub,2013-03-03 16:06:00,
2013-03-03 11:12:00,34.0,23.9,29.68,NW,310,0.0,0.0,66,13.92,,,99.99,meteohub,2013-03-03 16:12:00,
2013-03-03 11:17:00,33.6,23.2,29.68,NW,310,0.0,0.0,65,13.44,,,99.99,meteohub,2013-03-03 16:17:00,
2013-03-03 11:22:00,33.4,23.4,29.68,NW,310,0.0,0.0,66,13.68,,,99.99,meteohub,2013-03-03 16:22:00,
2013-03-03 11:27:00,33.6,23.5,29.68,NW,310,0.0,0.0,66,13.20,,,99.99,meteohub,2013-03-03 16:27:00,
2013-03-03 11:32:00,33.8,23.7,29.67,NW,310,0.0,0.0,66,13.68,,,99.99,meteohub,2013-03-03 16:32:00,
2013-03-03 11:37:00,34.0,23.5,29.67,NW,310,0.0,0.0,65,13.80,,,99.99,meteohub,2013-03-03 16:37:00,
2013-03-03 11:42:00,34.3,23.7,29.67,NW,310,0.0,0.0,65,13.32,,,99.99,meteohub,2013-03-03 16:42:00,
2013-03-03 11:47:00,34.7,23.7,29.67,NW,310,0.0,0.0,64,13.68,,,99.99,meteohub,2013-03-03 16:47:00,
2013-03-03 11:52:00,34.7,23.4,29.67,NW,310,0.0,0.0,63,13.92,,,99.99,meteohub,2013-03-03 16:52:00,
2013-03-03 11:57:00,34.9,23.5,29.67,NW,310,0.0,0.0,63,13.56,,,99.99,meteohub,2013-03-03 16:57:00,
2013-03-03 12:02:00,35.1,24.4,29.67,NW,310,0.0,0.0,65,13.80,,,99.99,meteohub,2013-03-03 17:02:00,
2013-03-03 12:07:00,35.4,24.1,29.67,NW,310,0.0,0.0,63,13.20,,,99.99,meteohub,2013-03-03 17:07:00,
2013-03-03 12:12:00,35.8,23.7,29.66,NW,310,0.0,0.0,61,13.68,,,99.99,meteohub,2013-03-03 17:12:00,
2013-03-03 12:17:00,35.6,23.0,29.66,NW,310,0.0,0.0,60,13.80,,,99.99,meteohub,2013-03-03 17:17:00,
2013-03-03 12:22:00,36.1,24.8,29.66,NW,310,0.0,0.0,63,13.32,,,99.99,meteohub,2013-03-03 17:22:00,
2013-03-03 12:27:00,36.1,24.1,29.66,NW,310,0.0,0.0,61,13.60,,,99.99,meteohub,2013-03-03 17:27:00,
2013-03-03 12:32:00,36.1,24.4,29.66,NW,310,0.0,0.0,62,13.96,,,99.99,meteohub,2013-03-03 17:32:00,
2013-03-03 12:37:00,35.4,23.7,29.66,NW,310,0.0,0.0,62,13.48,,,99.99,meteohub,2013-03-03 17:37:00,
2013-03-03 12:42:00,35.4,24.1,29.65,NW,310,0.0,0.0,63,13.72,,,99.99,meteohub,2013-03-03 17:42:00,
2013-03-03 12:47:00,35.2,23.5,29.65,NW,310,0.0,0.0,62,13.24,,,99.99,meteohub,2013-03-03 17:47:00,
2013-03-03 12:52:00,35.4,24.1,29.65,NW,310,0.0,0.0,63,13.60,,,99.99,meteohub,2013-03-03 17:52:00,
2013-03-03 12:57:00,35.2,23.5,29.65,NW,310,0.0,0.0,62,13.72,,,99.99,meteohub,2013-03-03 17:57:00,
2013-03-03 13:02:00,35.1,23.0,29.65,NW,310,0.0,0.0,61,13.24,,,99.99,meteohub,2013-03-03 18:02:00,
2013-03-03 13:07:00,35.1,22.6,29.65,NW,310,0.0,0.0,60,13.48,,,99.99,meteohub,2013-03-03 18:07:00,
2013-03-03 13:12:00,35.1,23.7,29.65,NW,310,0.0,0.0,63,14.04,,,99.99,meteohub,2013-03-03 18:12:00,
2013-03-03 13:17:00,35.1,23.0,29.65,NW,310,0.0,0.0,61,13.56,,,99.99,meteohub,2013-03-03 18:17:00,
2013-03-03 13:22:00,34.7,22.6,29.64,NW,310,0.0,0.0,61,13.80,,,99.99,meteohub,2013-03-03 18:22:00,
2013-03-03 13:27:00,34.9,23.9,29.64,NW,310,0.0,0.0,64,13.32,,,99.99,meteohub,2013-03-03 18:27:00,
2013-03-03 13:32:00,34.9,23.5,29.64,NW,310,0.0,0.0,63,13.56,,,99.99,meteohub,2013-03-03 18:32:00,
2013-03-03 13:37:00,34.9,23.9,29.64,NW,310,0.0,0.0,64,13.92,,,99.99,meteohub,2013-03-03 18:37:00,
2013-03-03 13:42:00,35.1,24.4,29.64,NW,310,0.0,0.0,65,13.44,,,99.99,meteohub,2013-03-03 18:42:00,
2013-03-03 13:47:00,35.1,23.4,29.64,NW,310,0.0,0.0,62,13.80,,,99.99,meteohub,2013-03-03 18:47:00,
2013-03-03 13:52:00,35.2,24.3,29.64,NW,310,0.0,0.0,64,13.20,,,99.99,meteohub,2013-03-03 18:52:00,
2013-03-03 13:57:00,35.2,23.9,29.64,NW,310,0.0,0.0,63,13.44,,,99.99,meteohub,2013-03-03 18:57:00,
2013-03-03 14:02:00,35.4,24.1,29.64,NW,310,0.0,0.0,63,13.72,,,99.99,meteohub,2013-03-03 19:02:00,
2013-03-03 14:07:00,35.6,24.3,29.64,NW,310,0.0,0.0,63,13.32,,,99.99,meteohub,2013-03-03 19:07:00,
2013-03-03 14:12:00,35.8,23.7,29.64,NW,310,0.0,0.0,61,13.52,,,99.99,meteohub,2013-03-03 19:12:00,
2013-03-03 14:17:00,35.8,24.4,29.64,NW,310,0.0,0.0,63,13.88,,,99.99,meteohub,2013-03-03 19:17:00,
2013-03-03 14:22:00,35.8,24.4,29.64,NW,310,0.0,0.0,63,13.40,,,99.99,meteohub,2013-03-03 19:22:00,
2013-03-03 14:27:00,35.8,24.1,29.64,NW,310,0.0,0.0,62,13.88,,,99.99,meteohub,2013-03-03 19:27:00,
2013-03-03 14:32:00,35.8,24.4,29.64,NW,310,0.0,0.0,63,13.40,,,99.99,meteohub,2013-03-03 19:32:00,
2013-03-03 14:37:00,35.6,23.5,29.64,NW,310,0.0,0.0,61,12.92,,,99.99,meteohub,2013-03-03 19:37:00,
2013-03-03 14:42:00,35.4,23.7,29.63,NW,310,0.0,0.0,62,13.76,,,99.99,meteohub,2013-03-03 19:42:00,
2013-03-03 14:47:00,35.4,24.4,29.63,NW,310,0.0,0.0,64,13.40,,,99.99,meteohub,2013-03-03 19:47:00,
2013-03-03 14:52:00,35.6,23.9,29.64,NW,310,0.0,0.0,62,13.64,,,99.99,meteohub,2013-03-03 19:52:00,
2013-03-03 14:57:00,35.6,24.6,29.64,NW,310,0.0,0.0,64,13.16,,,99.99,meteohub,2013-03-03 19:57:00,
2013-03-03 15:02:00,35.8,24.4,29.64,NW,310,0.0,0.0,63,13.60,,,99.99,meteohub,2013-03-03 20:02:00,
2013-03-03 15:07:00,35.8,24.8,29.64,NW,310,0.0,0.0,64,13.84,,,99.99,meteohub,2013-03-03 20:07:00,
2013-03-03 15:12:00,35.6,24.3,29.64,NW,310,0.0,0.0,63,13.36,,,99.99,meteohub,2013-03-03 20:12:00,
2013-03-03 15:17:00,35.8,25.2,29.64,NW,310,0.0,0.0,65,13.56,,,99.99,meteohub,2013-03-03 20:17:00,
2013-03-03 15:22:00,36.1,24.8,29.63,NW,310,0.0,0.0,63,13.80,,,99.99,meteohub,2013-03-03 20:22:00,
2013-03-03 15:27:00,35.8,24.1,29.64,NW,310,0.0,0.0,62,13.44,,,99.99,meteohub,2013-03-03 20:27:00,
2013-03-03 15:32:00,36.0,25.3,29.64,NW,310,0.0,0.0,65,13.68,,,99.99,meteohub,2013-03-03 20:32:00,
2013-03-03 15:38:00,36.5,26.2,29.64,NW,310,0.0,0.0,66,13.32,,,99.99,meteohub,2013-03-03 20:38:00,
2013-03-03 15:43:00,37.0,26.1,29.64,NW,310,0.0,0.0,64,13.44,,,99.99,meteohub,2013-03-03 20:43:00,
2013-03-03 15:48:00,36.7,25.3,29.64,NW,310,0.0,0.0,63,13.84,,,99.99,meteohub,2013-03-03 20:48:00,
2013-03-03 15:53:00,35.8,25.2,29.64,NW,310,0.0,0.0,65,13.24,,,99.99,meteohub,2013-03-03 20:53:00,
2013-03-03 15:58:00,35.2,25.7,29.64,NW,310,0.0,0.0,68,13.60,,,99.99,meteohub,2013-03-03 20:58:00,
2013-03-03 16:04:00,34.9,25.7,29.64,NW,310,0.0,0.0,69,13.88,,,99.99,meteohub,2013-03-03 21:04:00,
2013-03-03 16:09:00,34.9,26.1,29.64,NW,310,0.0,0.0,70,13.52,,,99.99,meteohub,2013-03-03 21:09:00,
2013-03-03 16:14:00,34.9,25.7,29.64,NW,310,0.0,0.0,69,13.76,,,99.99,meteohub,2013-03-03 21:14:00,
2013-03-03 16:19:00,34.3,25.5,29.64,NW,310,0.0,0.0,70,13.40,,,99.99,meteohub,2013-03-03 21:19:00,
2013-03-03 16:24:00,34.2,25.7,29.64,NW,310,0.0,0.0,71,13.60,,,99.99,meteohub,2013-03-03 21:24:00,
2013-03-03 16:29:00,34.3,25.9,29.64,NW,310,0.0,0.0,71,13.80,,,99.99,meteohub,2013-03-03 21:29:00,
2013-03-03 16:34:00,34.2,25.7,29.65,NW,310,0.0,0.0,71,13.32,,,99.99,meteohub,2013-03-03 21:34:00,
2013-03-03 16:39:00,34.2,25.7,29.65,NW,310,0.0,0.0,71,13.84,,,99.99,meteohub,2013-03-03 21:39:00,
2013-03-03 16:44:00,34.0,25.9,29.65,NW,310,0.0,0.0,72,13.36,,,99.99,meteohub,2013-03-03 21:44:00,
2013-03-03 16:50:00,33.6,26.2,29.65,NW,310,0.0,0.0,74,13.84,,,99.99,meteohub,2013-03-03 21:50:00,
2013-03-03 16:55:00,33.4,26.1,29.64,NW,310,0.0,0.0,74,13.48,,,99.99,meteohub,2013-03-03 21:55:00,
2013-03-03 17:00:00,33.3,25.9,29.65,NW,310,0.0,0.0,74,13.68,,,99.99,meteohub,2013-03-03 22:00:00,
2013-03-03 17:05:00,33.3,26.2,29.65,NW,310,0.0,0.0,75,13.80,,,99.99,meteohub,2013-03-03 22:05:00,
2013-03-03 17:10:00,32.9,25.9,29.65,NW,310,0.0,0.0,75,13.32,,,99.99,meteohub,2013-03-03 22:10:00,
2013-03-03 17:15:00,32.5,25.5,29.65,NW,310,0.0,0.0,75,13.60,,,99.99,meteohub,2013-03-03 22:15:00,
2013-03-03 17:20:00,32.4,25.3,29.65,NW,310,0.0,0.0,75,13.12,,,99.99,meteohub,2013-03-03 22:20:00,
2013-03-03 17:25:00,32.2,25.5,29.65,NW,310,0.0,0.0,76,13.44,,,99.99,meteohub,2013-03-03 22:25:00,
2013-03-03 17:31:00,32.0,25.3,29.65,NW,310,0.0,0.0,76,13.68,,,99.99,meteohub,2013-03-03 22:31:00,
2013-03-03 17:36:00,31.8,25.2,29.65,NW,310,0.0,0.0,76,13.28,,,99.99,meteohub,2013-03-03 22:36:00,
2013-03-03 17:41:00,31.6,25.3,29.66,NW,310,0.0,0.0,77,13.52,,,99.99,meteohub,2013-03-03 22:41:00,
2013-03-03 17:46:00,31.5,25.3,29.66,NW,310,0.0,0.0,78,13.72,,,99.99,meteohub,2013-03-03 22:46:00,
2013-03-03 17:51:00,31.3,25.5,29.66,NW,310,0.0,0.0,79,13.24,,,99.99,meteohub,2013-03-03 22:51:00,
2013-03-03 17:56:00,31.3,25.2,29.66,NW,310,0.0,0.0,78,13.48,,,99.99,meteohub,2013-03-03 22:56:00,
2013-03-03 18:01:00,31.1,25.0,29.66,NW,310,0.0,0.0,78,13.00,,,99.99,meteohub,2013-03-03 23:01:00,
2013-03-03 18:07:00,31.1,25.0,29.66,NW,310,0.0,0.0,78,13.60,,,99.99,meteohub,2013-03-03 23:07:00,
2013-03-03 18:12:00,30.9,24.8,29.66,NW,310,0.0,0.0,78,13.84,,,99.99,meteohub,2013-03-03 23:12:00,
2013-03-03 18:17:00,30.9,25.2,29.66,NW,310,0.0,0.0,79,13.44,,,99.99,meteohub,2013-03-03 23:17:00,
2013-03-03 18:22:00,30.7,25.0,29.67,NW,310,0.0,0.0,79,13.68,,,99.99,meteohub,2013-03-03 23:22:00,
2013-03-03 18:27:00,30.7,25.0,29.67,NW,310,0.0,0.0,79,14.04,,,99.99,meteohub,2013-03-03 23:27:00,
2013-03-03 18:32:00,30.7,24.6,29.67,NW,310,0.0,0.0,78,13.56,,,99.99,meteohub,2013-03-03 23:32:00,
2013-03-03 18:37:00,30.9,24.8,29.67,NW,310,0.0,0.0,78,13.56,,,99.99,meteohub,2013-03-03 23:37:00,
2013-03-03 18:42:00,30.9,25.2,29.67,NW,310,0.0,0.0,79,13.92,,,99.99,meteohub,2013-03-03 23:42:00,
2013-03-03 18:47:00,30.9,25.2,29.67,NW,310,0.0,0.0,79,13.44,,,99.99,meteohub,2013-03-03 23:47:00,
2013-03-03 18:52:00,30.9,25.2,29.67,NW,310,0.0,0.0,79,13.80,,,99.99,meteohub,2013-03-03 23:52:00,
2013-03-03 18:57:00,30.9,25.2,29.67,NW,310,0.0,0.0,79,13.32,,,99.99,meteohub,2013-03-03 23:57:00,
2013-03-03 19:02:00,30.7,25.3,29.67,NW,310,0.0,0.0,80,13.68,,,99.99,meteohub,2013-03-04 00:02:00,
2013-03-03 19:07:00,30.7,25.3,29.67,NW,310,0.0,0.0,80,13.80,,,1.08,meteohub,2013-03-04 00:07:00,
2013-03-03 19:12:00,30.7,25.3,29.68,NW,310,0.0,0.0,80,13.32,,,1.80,meteohub,2013-03-04 00:12:00,
2013-03-03 19:17:00,30.7,25.3,29.68,NW,310,0.0,0.0,80,13.56,,,3.24,meteohub,2013-03-04 00:17:00,
2013-03-03 19:23:00,30.7,25.5,29.68,NW,310,0.0,0.0,81,13.92,,,4.68,meteohub,2013-03-04 00:23:00,
2013-03-03 19:28:00,30.7,25.5,29.68,NW,310,0.0,0.0,81,13.44,,,5.40,meteohub,2013-03-04 00:28:00,
2013-03-03 19:33:00,30.7,25.5,29.68,NW,310,0.0,0.0,81,13.92,,,6.96,meteohub,2013-03-04 00:33:00,
2013-03-03 19:38:00,30.6,25.2,29.68,NW,310,0.0,0.0,80,13.32,,,7.56,meteohub,2013-03-04 00:38:00,
2013-03-03 19:43:00,30.6,25.2,29.68,NW,310,0.0,0.0,80,13.60,,,9.04,meteohub,2013-03-04 00:43:00,
2013-03-03 19:48:00,30.7,25.3,29.68,NW,310,0.0,0.0,80,13.84,,,10.48,meteohub,2013-03-04 00:48:00,
2013-03-03 19:53:00,30.7,25.0,29.68,NW,310,0.0,0.0,79,13.36,,,11.20,meteohub,2013-03-04 00:53:00,
2013-03-03 19:59:00,30.7,25.0,29.68,NW,310,0.0,0.0,79,13.60,,,12.64,meteohub,2013-03-04 00:59:00,
2013-03-03 20:04:00,30.7,25.0,29.68,NW,310,0.0,0.0,79,13.24,,,13.36,meteohub,2013-03-04 01:04:00,
2013-03-03 20:09:00,30.7,25.0,29.68,NW,310,0.0,0.0,79,13.64,,,14.84,meteohub,2013-03-04 01:09:00,
2013-03-03 20:14:00,30.7,25.0,29.68,NW,310,0.0,0.0,79,13.88,,,16.28,meteohub,2013-03-04 01:14:00,
2013-03-03 20:19:00,30.7,25.0,29.68,NW,310,0.0,0.0,79,13.40,,,17.00,meteohub,2013-03-04 01:19:00,
2013-03-03 20:24:00,30.7,25.0,29.69,NW,310,0.0,0.0,79,13.64,,,18.44,meteohub,2013-03-04 01:24:00,
2013-03-03 20:29:00,30.7,25.0,29.69,NW,310,0.0,0.0,79,13.88,,,19.88,meteohub,2013-03-04 01:29:00,
2013-03-03 20:34:00,30.7,25.0,29.69,NW,310,0.0,0.0,79,13.40,,,20.60,meteohub,2013-03-04 01:34:00,
2013-03-03 20:39:00,30.6,24.4,29.69,NW,310,0.0,0.0,78,13.72,,,22.04,meteohub,2013-03-04 01:39:00,
2013-03-03 20:45:00,30.6,24.4,29.69,NW,310,0.0,0.0,78,13.36,,,22.76,meteohub,2013-03-04 01:45:00,
2013-03-03 20:50:00,30.6,24.4,29.69,NW,310,0.0,0.0,78,13.88,,,25.68,meteohub,2013-03-04 01:50:00,
2013-03-03 20:55:00,30.6,24.4,29.69,NW,310,0.0,0.0,78,13.40,,,26.40,meteohub,2013-03-04 01:55:00,
2013-03-03 21:00:00,30.6,24.4,29.69,NW,310,0.0,0.0,78,13.64,,,27.88,meteohub,2013-03-04 02:00:00,
2013-03-03 21:05:00,30.4,24.6,29.70,NW,310,0.0,0.0,79,13.28,,,28.60,meteohub,2013-03-04 02:05:00,
2013-03-03 21:10:00,30.4,25.0,29.70,NW,310,0.0,0.0,80,13.52,,,30.04,meteohub,2013-03-04 02:10:00,
2013-03-03 21:15:00,30.4,24.6,29.70,NW,310,0.0,0.0,79,13.88,,,31.48,meteohub,2013-03-04 02:15:00,
2013-03-03 21:20:00,30.4,25.0,29.70,NW,310,0.0,0.0,80,13.44,,,32.24,meteohub,2013-03-04 02:20:00,
2013-03-03 21:26:00,30.2,24.8,29.70,NW,310,0.0,0.0,80,13.68,,,33.68,meteohub,2013-03-04 02:26:00,
2013-03-03 21:31:00,30.0,24.6,29.70,NW,310,0.0,0.0,80,13.32,,,34.52,meteohub,2013-03-04 02:31:00,
2013-03-03 21:36:00,30.0,24.6,29.70,NW,310,0.0,0.0,80,13.56,,,35.96,meteohub,2013-03-04 02:36:00,
2013-03-03 21:41:00,30.0,25.0,29.70,NW,310,0.0,0.0,81,13.92,,,37.40,meteohub,2013-03-04 02:41:00,
2013-03-03 21:46:00,29.8,24.8,29.70,NW,310,0.0,0.0,81,13.20,,,37.88,meteohub,2013-03-04 02:46:00,
2013-03-03 21:51:00,29.8,24.8,29.70,NW,310,0.0,0.0,81,12.68,,,38.48,meteohub,2013-03-04 02:51:00,
2013-03-03 21:57:00,29.7,24.6,29.70,NW,310,0.0,0.0,81,12.92,,,39.92,meteohub,2013-03-04 02:57:00,
2013-03-03 22:02:00,29.7,24.6,29.70,NW,310,0.0,0.0,81,12.40,,,40.64,meteohub,2013-03-04 03:02:00,
2013-03-03 22:07:00,29.7,24.6,29.70,NW,310,0.0,0.0,81,12.64,,,42.08,meteohub,2013-03-04 03:07:00,
2013-03-03 22:12:00,29.5,24.4,29.70,NW,310,0.0,0.0,81,12.16,,,42.80,meteohub,2013-03-04 03:12:00,
2013-03-03 22:17:00,29.5,24.4,29.70,NW,310,0.0,0.0,81,12.52,,,44.36,meteohub,2013-03-04 03:17:00,
2013-03-03 22:22:00,29.5,24.4,29.69,NW,310,0.0,0.0,81,12.88,,,45.84,meteohub,2013-03-04 03:22:00,
2013-03-03 22:27:00,29.5,24.1,29.69,NW,310,0.0,0.0,80,12.28,,,46.44,meteohub,2013-03-04 03:27:00,
2013-03-03 22:32:00,29.3,23.9,29.69,NW,310,0.0,0.0,80,12.64,,,47.88,meteohub,2013-03-04 03:32:00,
2013-03-03 22:37:00,29.5,24.1,29.70,NW,310,0.0,0.0,80,12.16,,,48.60,meteohub,2013-03-04 03:37:00,
2013-03-03 22:42:00,29.5,23.5,29.70,NW,310,0.0,0.0,78,12.56,,,50.20,meteohub,2013-03-04 03:42:00,
2013-03-03 22:47:00,29.5,23.5,29.70,NW,310,0.0,0.0,78,13.76,,,51.64,meteohub,2013-03-04 03:47:00,
2013-03-03 22:52:00,29.3,23.4,29.70,NW,310,0.0,0.0,78,13.40,,,52.36,meteohub,2013-03-04 03:52:00,
2013-03-03 22:57:00,29.3,23.0,29.70,NW,310,0.0,0.0,77,13.52,,,53.68,meteohub,2013-03-04 03:57:00,
2013-03-03 23:02:00,29.1,22.5,29.70,NW,310,0.0,0.0,76,13.88,,,55.24,meteohub,2013-03-04 04:02:00,
2013-03-03 23:07:00,28.9,22.1,29.70,NW,310,0.0,0.0,75,13.40,,,55.84,meteohub,2013-03-04 04:07:00,
2013-03-03 23:13:00,28.9,21.7,29.70,NW,310,0.0,0.0,74,13.80,,,57.44,meteohub,2013-03-04 04:13:00,
2013-03-03 23:18:00,28.9,21.7,29.70,NW,310,0.0,0.0,74,13.32,,,58.16,meteohub,2013-03-04 04:18:00,
2013-03-03 23:23:00,28.8,21.6,29.70,NW,310,0.0,0.0,74,13.64,,,59.60,meteohub,2013-03-04 04:23:00,
2013-03-03 23:28:00,28.8,21.6,29.70,NW,310,0.0,0.0,74,13.76,,,60.92,meteohub,2013-03-04 04:28:00,
2013-03-03 23:33:00,28.8,21.6,29.70,NW,310,0.0,0.0,74,13.40,,,61.76,meteohub,2013-03-04 04:33:00,
2013-03-03 23:38:00,28.8,21.9,29.70,NW,310,0.0,0.0,75,13.72,,,63.20,meteohub,2013-03-04 04:38:00,
2013-03-03 23:43:00,28.6,21.7,29.70,NW,310,0.0,0.0,75,13.96,,,64.64,meteohub,2013-03-04 04:43:00,
2013-03-03 23:48:00,28.8,21.6,29.70,NW,310,0.0,0.0,74,13.48,,,65.36,meteohub,2013-03-04 04:48:00,
2013-03-03 23:53:00,28.8,21.6,29.70,NW,310,0.0,0.0,74,13.72,,,66.80,meteohub,2013-03-04 04:53:00,
2013-03-03 23:59:00,28.8,21.6,29.70,NW,310,0.0,0.0,74,13.24,,,67.40,meteohub,2013-03-04 04:59:00,